createdAt,value
2022-12-16T00:01:08.964Z,-0.09
2022-12-16T00:03:38.898Z,-0.09
2022-12-16T00:06:10.214Z,-0.09
2022-12-16T00:08:39.428Z,-0.11
2022-12-16T00:11:08.250Z,-0.11
2022-12-16T00:13:37.311Z,-0.06
2022-12-16T00:16:09.566Z,-0.08
2022-12-16T00:18:38.971Z,-0.10
2022-12-16T00:21:07.511Z,-0.17
2022-12-16T00:23:36.747Z,-0.17
2022-12-16T00:26:04.969Z,-0.22
2022-12-16T00:28:33.204Z,-0.23
2022-12-16T00:31:01.227Z,-0.23
2022-12-16T00:33:29.554Z,-0.27
2022-12-16T00:35:59.201Z,-0.27
2022-12-16T00:38:27.972Z,-0.24
2022-12-16T00:40:56.074Z,-0.23
2022-12-16T00:43:24.303Z,-0.21
2022-12-16T00:45:52.401Z,-0.16
2022-12-16T00:48:23.158Z,-0.19
2022-12-16T00:50:52.161Z,-0.15
2022-12-16T00:53:22.267Z,-0.13
2022-12-16T00:55:50.246Z,-0.10
2022-12-16T00:58:18.720Z,-0.13
2022-12-16T01:00:46.765Z,-0.10
2022-12-16T01:03:21.038Z,-0.14
2022-12-16T01:05:49.660Z,-0.10
2022-12-16T01:08:17.879Z,-0.13
2022-12-16T01:10:52.884Z,-0.13
2022-12-16T01:13:24.441Z,-0.09
2022-12-16T01:15:52.473Z,-0.07
2022-12-16T01:18:20.816Z,-0.16
2022-12-16T01:20:48.689Z,-0.16
2022-12-16T01:23:16.608Z,-0.13
2022-12-16T01:25:44.827Z,-0.12
2022-12-16T01:28:14.095Z,-0.08
2022-12-16T01:30:42.037Z,-0.07
2022-12-16T01:33:10.851Z,-0.04
2022-12-16T01:35:55.260Z,-0.01
2022-12-16T01:38:23.688Z,-0.08
2022-12-16T01:40:51.772Z,-0.02
2022-12-16T01:43:22.850Z,-0.06
2022-12-16T01:45:50.815Z,-0.09
2022-12-16T01:48:23.324Z,-0.10
2022-12-16T01:50:52.084Z,-0.10
2022-12-16T01:53:21.571Z,-0.05
2022-12-16T01:55:51.205Z,-0.09
2022-12-16T01:58:23.857Z,-0.03
2022-12-16T02:00:51.941Z,-0.03
2022-12-16T02:03:20.133Z,-0.01
2022-12-16T02:05:48.638Z,-0.10
2022-12-16T02:08:17.606Z,-0.03
2022-12-16T02:10:59.643Z,-0.05
2022-12-16T02:13:35.414Z,-0.10
2022-12-16T02:16:07.595Z,-0.12
2022-12-16T02:18:44.762Z,-0.07
2022-12-16T02:21:24.843Z,-0.06
2022-12-16T02:24:41.618Z,-0.10
2022-12-16T02:27:36.363Z,-0.09
2022-12-16T02:30:25.454Z,-0.06
2022-12-16T02:33:02.402Z,0.02
2022-12-16T02:35:36.182Z,0.05
2022-12-16T02:38:13.579Z,0.07
2022-12-16T02:40:45.334Z,0.07
2022-12-16T02:43:18.661Z,-0.07
2022-12-16T02:45:47.455Z,-0.10
2022-12-16T02:48:17.085Z,-0.14
2022-12-16T02:50:47.275Z,-0.09
2022-12-16T02:53:15.547Z,-0.09
2022-12-16T02:55:54.548Z,-0.20
2022-12-16T02:58:29.298Z,-0.19
2022-12-16T03:01:02.130Z,-0.16
2022-12-16T03:03:37.644Z,-0.11
2022-12-16T03:06:06.365Z,-0.12
2022-12-16T03:08:36.630Z,-0.15
2022-12-16T03:11:06.782Z,-0.17
2022-12-16T03:13:38.624Z,-0.10
2022-12-16T03:16:07.943Z,-0.06
2022-12-16T03:18:38.612Z,-0.09
2022-12-16T03:21:08.388Z,-0.10
2022-12-16T03:23:41.141Z,-0.08
2022-12-16T03:26:12.275Z,-0.09
2022-12-16T03:28:45.661Z,-0.10
2022-12-16T03:31:19.297Z,-0.16
2022-12-16T03:33:51.429Z,-0.21
2022-12-16T03:36:20.812Z,-0.28
2022-12-16T03:38:49.350Z,-0.34
2022-12-16T03:41:17.751Z,-0.42
2022-12-16T03:43:45.674Z,-0.50
2022-12-16T03:46:14.441Z,-0.53
2022-12-16T03:48:48.518Z,-0.58
2022-12-16T03:51:16.537Z,-0.56
2022-12-16T03:53:44.405Z,-0.59
2022-12-16T03:56:13.049Z,-0.59
2022-12-16T03:58:41.266Z,-0.71
2022-12-16T04:01:09.669Z,-0.75
2022-12-16T04:03:37.856Z,-0.76
2022-12-16T04:06:07.755Z,-0.82
2022-12-16T04:08:35.529Z,-0.83
2022-12-16T04:11:21.015Z,-0.84
2022-12-16T04:14:06.006Z,-0.92
2022-12-16T04:16:51.459Z,-0.91
2022-12-16T04:19:40.874Z,-0.90
2022-12-16T04:22:32.259Z,-0.90
2022-12-16T04:25:02.218Z,-0.97
2022-12-16T04:27:29.936Z,-0.92
2022-12-16T04:30:15.061Z,-0.85
2022-12-16T04:33:00.397Z,-1.06
2022-12-16T04:35:45.596Z,-1.17
2022-12-16T04:38:32.409Z,-1.19
2022-12-16T04:41:17.870Z,-1.16
2022-12-16T04:44:03.189Z,-1.16
2022-12-16T04:46:48.376Z,-1.17
2022-12-16T04:49:33.753Z,-1.10
2022-12-16T04:52:19.214Z,-1.05
2022-12-16T04:55:05.942Z,-0.98
2022-12-16T04:57:51.235Z,-0.97
2022-12-16T05:00:36.578Z,-0.96
2022-12-16T05:03:21.845Z,-0.93
2022-12-16T05:06:06.937Z,-1.16
2022-12-16T05:08:52.191Z,-1.30
2022-12-16T05:11:38.907Z,-1.25
2022-12-16T05:14:24.261Z,-1.20
2022-12-16T05:17:09.470Z,-1.25
2022-12-16T05:19:54.769Z,-1.32
2022-12-16T05:22:39.964Z,-1.35
2022-12-16T05:25:35.145Z,-1.41
2022-12-16T05:28:21.741Z,-1.45
2022-12-16T05:31:06.946Z,-1.47
2022-12-16T05:33:52.088Z,-1.34
2022-12-16T05:36:37.137Z,-1.20
2022-12-16T05:39:22.543Z,-1.17
2022-12-16T05:42:07.616Z,-1.15
2022-12-16T05:44:54.071Z,-1.02
2022-12-16T05:47:39.388Z,-0.99
2022-12-16T05:50:25.473Z,-0.92
2022-12-16T05:53:11.678Z,-0.84
2022-12-16T05:55:56.680Z,-0.82
2022-12-16T05:58:42.054Z,-0.85
2022-12-16T06:01:28.798Z,-0.80
2022-12-16T06:04:17.432Z,-0.72
2022-12-16T06:07:03.178Z,-0.79
2022-12-16T06:09:53.130Z,-0.85
2022-12-16T06:12:41.272Z,-0.89
2022-12-16T06:15:27.232Z,-1.04
2022-12-16T06:18:13.954Z,-1.00
2022-12-16T06:20:59.131Z,-0.99
2022-12-16T06:23:44.546Z,-1.00
2022-12-16T06:26:29.936Z,-0.97
2022-12-16T06:29:15.114Z,-1.06
2022-12-16T06:32:00.437Z,-1.05
2022-12-16T06:34:47.161Z,-1.05
2022-12-16T06:37:32.417Z,-1.09
2022-12-16T06:40:17.881Z,-1.03
2022-12-16T06:43:02.761Z,-1.12
2022-12-16T06:45:48.599Z,-1.13
2022-12-16T06:48:33.677Z,-1.13
2022-12-16T06:51:20.480Z,-1.11
2022-12-16T06:54:05.835Z,-1.15
2022-12-16T06:56:50.909Z,-1.20
2022-12-16T06:59:36.287Z,-1.25
2022-12-16T07:02:21.924Z,-1.22
2022-12-16T07:05:15.821Z,-1.14
2022-12-16T07:08:07.143Z,-1.15
2022-12-16T07:10:52.431Z,-1.19
2022-12-16T07:13:40.718Z,-1.21
2022-12-16T07:16:37.313Z,-1.19
2022-12-16T07:19:22.420Z,-1.29
2022-12-16T07:22:07.727Z,-1.37
2022-12-16T07:24:55.065Z,-1.41
2022-12-16T07:27:40.136Z,-1.31
2022-12-16T07:30:26.697Z,-1.35
2022-12-16T07:33:11.907Z,-1.25
2022-12-16T07:35:56.992Z,-1.18
2022-12-16T07:38:42.137Z,-1.10
2022-12-16T07:41:28.857Z,-1.06
2022-12-16T07:44:13.963Z,-1.13
2022-12-16T07:46:59.174Z,-1.24
2022-12-16T07:49:44.286Z,-1.33
2022-12-16T07:52:29.475Z,-1.45
2022-12-16T07:55:14.609Z,-1.52
2022-12-16T07:58:01.549Z,-1.45
2022-12-16T08:00:46.632Z,-1.45
2022-12-16T08:03:32.056Z,-1.43
2022-12-16T08:06:17.488Z,-1.51
2022-12-16T08:09:02.395Z,-1.40
2022-12-16T08:11:47.636Z,-1.30
2022-12-16T08:14:34.596Z,-1.34
2022-12-16T08:17:19.682Z,-1.25
2022-12-16T08:20:04.908Z,-1.20
2022-12-16T08:22:50.210Z,-1.11
2022-12-16T08:25:36.638Z,-1.31
2022-12-16T08:28:21.937Z,-1.25
2022-12-16T08:31:09.774Z,-1.17
2022-12-16T08:33:55.235Z,-1.05
2022-12-16T08:36:41.501Z,-1.01
2022-12-16T08:39:26.540Z,-0.98
2022-12-16T08:42:11.770Z,-1.13
2022-12-16T08:44:56.794Z,-1.07
2022-12-16T08:47:43.663Z,-1.04
2022-12-16T08:50:28.750Z,-0.96
2022-12-16T08:53:13.873Z,-1.02
2022-12-16T08:55:59.102Z,-1.24
2022-12-16T08:58:44.111Z,-1.29
2022-12-16T09:01:29.270Z,-1.16
2022-12-16T09:04:15.350Z,-1.05
2022-12-16T09:07:00.837Z,-1.20
2022-12-16T09:09:46.546Z,-1.05
2022-12-16T09:12:31.854Z,-1.06
2022-12-16T09:15:17.230Z,-1.10
2022-12-16T09:18:02.310Z,-1.03
2022-12-16T09:20:49.015Z,-0.90
2022-12-16T09:23:34.685Z,-0.88
2022-12-16T09:26:19.997Z,-0.83
2022-12-16T09:29:05.222Z,-0.73
2022-12-16T09:31:50.380Z,-0.65
2022-12-16T09:34:35.625Z,-0.72
2022-12-16T09:37:22.411Z,-0.69
2022-12-16T09:40:07.560Z,-0.62
2022-12-16T09:43:01.728Z,-0.62
2022-12-16T09:45:52.400Z,-0.61
2022-12-16T09:48:43.391Z,-0.65
2022-12-16T09:51:30.131Z,-0.62
2022-12-16T09:54:18.884Z,-0.56
2022-12-16T09:57:04.515Z,-0.71
2022-12-16T09:59:56.311Z,-0.61
2022-12-16T10:02:43.812Z,-0.51
2022-12-16T10:05:31.225Z,-0.43
2022-12-16T10:08:23.107Z,-0.65
2022-12-16T10:11:16.712Z,-0.59
2022-12-16T10:14:06.345Z,-0.53
2022-12-16T10:16:57.482Z,-0.71
2022-12-16T10:19:51.799Z,-0.67
2022-12-16T10:22:42.139Z,-0.70
2022-12-16T10:25:31.712Z,-0.89
2022-12-16T10:28:23.060Z,-1.17
2022-12-16T10:31:09.295Z,-1.19
2022-12-16T10:33:54.802Z,-1.00
2022-12-16T10:36:42.504Z,-1.03
2022-12-16T10:39:38.381Z,-1.36
2022-12-16T10:42:25.474Z,-1.31
2022-12-16T10:45:14.036Z,-1.32
2022-12-16T10:47:59.319Z,-1.09
2022-12-16T10:50:44.396Z,-0.98
2022-12-16T10:53:33.321Z,-0.86
2022-12-16T10:56:25.331Z,-0.76
2022-12-16T10:59:12.954Z,-1.04
2022-12-16T11:01:59.523Z,-0.96
2022-12-16T11:04:49.746Z,-0.93
2022-12-16T11:07:42.934Z,-0.84
2022-12-16T11:10:47.963Z,-1.13
2022-12-16T11:13:36.986Z,-1.09
2022-12-16T11:16:29.183Z,-0.95
2022-12-16T11:19:15.983Z,-1.06
2022-12-16T11:22:01.549Z,-0.89
2022-12-16T11:24:47.713Z,-0.76
2022-12-16T11:27:36.155Z,-0.80
2022-12-16T11:30:23.143Z,-1.11
2022-12-16T11:33:11.308Z,-1.12
2022-12-16T11:36:00.190Z,-0.98
2022-12-16T11:38:48.204Z,-0.96
2022-12-16T11:41:41.508Z,-0.95
2022-12-16T11:44:31.752Z,-0.78
2022-12-16T11:47:16.877Z,-0.75
2022-12-16T11:50:02.069Z,-0.63
2022-12-16T11:52:48.820Z,-0.70
2022-12-16T11:58:47.211Z,-0.42
2022-12-16T12:01:41.543Z,-0.32
2022-12-16T12:04:30.757Z,-0.43
2022-12-16T12:07:32.556Z,-0.75
2022-12-16T12:10:26.558Z,-0.89
2022-12-16T12:13:16.122Z,-0.77
2022-12-16T12:16:04.888Z,-0.86
2022-12-16T12:18:56.595Z,-1.03
2022-12-16T12:21:44.320Z,-0.88
2022-12-16T12:24:38.876Z,-0.69
2022-12-16T12:27:33.425Z,-0.55
2022-12-16T12:30:22.534Z,-0.50
2022-12-16T12:33:17.993Z,-0.53
2022-12-16T12:36:13.113Z,-0.46
2022-12-16T12:39:09.042Z,-0.77
2022-12-16T12:42:06.395Z,-1.01
2022-12-16T12:45:10.563Z,-0.91
2022-12-16T12:47:59.618Z,-0.84
2022-12-16T12:50:49.915Z,-0.70
2022-12-16T12:53:43.766Z,-0.79
2022-12-16T12:56:45.929Z,-0.79
2022-12-16T12:59:35.977Z,-0.95
2022-12-16T13:02:24.030Z,-1.21
2022-12-16T13:05:10.276Z,-1.29
2022-12-16T13:07:55.424Z,-1.27
2022-12-16T13:10:53.380Z,-1.25
2022-12-16T13:13:50.957Z,-1.31
2022-12-16T13:17:20.298Z,-1.18
2022-12-16T13:20:16.659Z,-1.10
2022-12-16T13:23:03.388Z,-1.03
2022-12-16T13:25:56.280Z,-1.13
2022-12-16T13:28:43.931Z,-1.06
2022-12-16T13:31:29.169Z,-1.04
2022-12-16T13:34:18.151Z,-1.07
2022-12-16T13:37:11.822Z,-0.94
2022-12-16T13:39:57.667Z,-0.94
2022-12-16T13:43:09.918Z,-1.07
2022-12-16T13:45:57.477Z,-1.18
2022-12-16T13:48:49.723Z,-1.54
2022-12-16T13:52:26.972Z,-1.62
2022-12-16T13:55:33.272Z,-1.61
2022-12-16T13:58:23.098Z,-1.55
2022-12-16T14:01:17.898Z,-1.53
2022-12-16T14:04:11.449Z,-1.54
2022-12-16T14:06:57.997Z,-1.58
2022-12-16T14:09:50.853Z,-1.43
2022-12-16T14:13:00.644Z,-1.38
2022-12-16T14:15:50.551Z,-1.54
2022-12-16T14:18:44.431Z,-1.53
2022-12-16T14:21:32.916Z,-1.61
2022-12-16T14:24:21.895Z,-1.55
2022-12-16T14:27:08.553Z,-1.65
2022-12-16T14:29:57.409Z,-1.64
2022-12-16T14:32:46.832Z,-1.71
2022-12-16T14:35:34.192Z,-1.59
2022-12-16T14:38:36.064Z,-1.52
2022-12-16T14:41:21.528Z,-1.65
2022-12-16T14:44:06.998Z,-1.60
2022-12-16T14:46:53.431Z,-1.63
2022-12-16T14:49:41.558Z,-1.63
2022-12-16T14:52:45.196Z,-1.90
2022-12-16T14:55:34.090Z,-1.88
2022-12-16T14:58:24.387Z,-1.93
2022-12-16T15:01:15.570Z,-1.87
2022-12-16T15:04:04.505Z,-2.01
2022-12-16T15:06:52.547Z,-1.93
2022-12-16T15:09:38.436Z,-1.97
2022-12-16T15:12:24.286Z,-2.03
2022-12-16T15:15:10.815Z,-2.01
2022-12-16T15:18:03.264Z,-1.94
2022-12-16T15:20:52.035Z,-2.04
2022-12-16T15:23:40.897Z,-1.99
2022-12-16T15:26:26.860Z,-1.93
2022-12-16T15:29:12.219Z,-2.00
2022-12-16T15:32:03.180Z,-1.97
2022-12-16T15:34:51.162Z,-1.89
2022-12-16T15:37:40.190Z,-1.79
2022-12-16T15:40:39.628Z,-1.78
2022-12-16T15:43:24.854Z,-1.81
2022-12-16T15:46:10.316Z,-1.76
2022-12-16T15:48:56.024Z,-1.92
2022-12-16T15:51:47.381Z,-1.91
2022-12-16T15:54:39.048Z,-1.96
2022-12-16T15:57:45.222Z,-2.02
2022-12-16T16:00:40.286Z,-2.06
2022-12-16T16:03:36.169Z,-2.07
2022-12-16T16:06:22.151Z,-2.14
2022-12-16T16:09:09.466Z,-2.30
2022-12-16T16:11:56.082Z,-2.26
2022-12-16T16:14:41.113Z,-2.29
2022-12-16T16:17:35.337Z,-2.19
2022-12-16T16:20:20.700Z,-2.22
2022-12-16T16:23:05.806Z,-2.33
2022-12-16T16:25:47.396Z,-2.30
2022-12-16T16:28:30.364Z,-2.22
2022-12-16T16:31:15.855Z,-2.17
2022-12-16T16:34:01.326Z,-2.14
2022-12-16T16:36:45.821Z,-2.20
2022-12-16T16:39:31.047Z,-2.40
2022-12-16T16:42:16.360Z,-2.38
2022-12-16T16:45:02.271Z,-2.27
2022-12-16T16:47:47.527Z,-2.27
2022-12-16T16:50:33.290Z,-2.15
2022-12-16T16:53:18.644Z,-2.05
2022-12-16T16:56:03.896Z,-2.03
2022-12-16T16:58:52.219Z,-2.02
2022-12-16T17:01:38.786Z,-2.10
2022-12-16T17:04:24.093Z,-2.08
2022-12-16T17:07:09.214Z,-2.05
2022-12-16T17:09:54.357Z,-2.13
2022-12-16T17:12:43.292Z,-2.25
2022-12-16T17:15:34.493Z,-2.30
2022-12-16T17:18:21.413Z,-2.26
2022-12-16T17:21:06.680Z,-2.21
2022-12-16T17:23:51.925Z,-2.22
2022-12-16T17:26:37.249Z,-2.28
2022-12-16T17:29:19.564Z,-2.22
2022-12-16T17:32:04.914Z,-2.28
2022-12-16T17:34:51.585Z,-2.32
2022-12-16T17:37:38.091Z,-2.46
2022-12-16T17:40:24.181Z,-2.46
2022-12-16T17:43:09.574Z,-2.48
2022-12-16T17:45:54.764Z,-2.53
2022-12-16T17:48:45.266Z,-2.44
2022-12-16T17:51:37.416Z,-2.47
2022-12-16T17:54:26.143Z,-2.48
2022-12-16T17:57:25.765Z,-2.53
2022-12-16T18:00:10.780Z,-2.42
2022-12-16T18:02:56.241Z,-2.34
2022-12-16T18:05:44.649Z,-2.44
2022-12-16T18:08:32.163Z,-2.36
2022-12-16T18:11:17.998Z,-2.53
2022-12-16T18:14:03.336Z,-2.38
2022-12-16T18:16:48.784Z,-2.30
2022-12-16T18:19:35.053Z,-2.37
2022-12-16T18:22:20.363Z,-2.28
2022-12-16T18:25:06.684Z,-2.30
2022-12-16T18:27:52.149Z,-2.35
2022-12-16T18:30:37.402Z,-2.36
2022-12-16T18:33:22.798Z,-2.49
2022-12-16T18:36:08.258Z,-2.30
2022-12-16T18:38:53.605Z,-2.22
2022-12-16T18:41:41.086Z,-1.98
2022-12-16T18:44:28.966Z,-1.89
2022-12-16T18:47:14.156Z,-2.05
2022-12-16T18:49:59.543Z,-2.22
2022-12-16T18:52:44.906Z,-2.14
2022-12-16T18:55:30.272Z,-2.25
2022-12-16T18:58:42.781Z,-2.15
2022-12-16T19:01:23.397Z,-2.25
2022-12-16T19:04:08.637Z,-2.35
2022-12-16T19:07:05.446Z,-2.53
2022-12-16T19:09:50.629Z,-2.45
2022-12-16T19:12:36.069Z,-2.47
2022-12-16T19:15:23.241Z,-2.40
2022-12-16T19:18:08.517Z,-2.28
2022-12-16T19:20:54.286Z,-2.39
2022-12-16T19:23:42.091Z,-2.33
2022-12-16T19:26:27.545Z,-2.27
2022-12-16T19:29:12.869Z,-2.42
2022-12-16T19:31:59.658Z,-2.41
2022-12-16T19:34:45.121Z,-2.48
2022-12-16T19:37:30.384Z,-2.49
2022-12-16T19:40:15.883Z,-2.45
2022-12-16T19:43:01.148Z,-2.48
2022-12-16T19:45:46.204Z,-2.55
2022-12-16T19:48:32.733Z,-2.57
2022-12-16T19:51:19.123Z,-2.67
2022-12-16T19:54:04.441Z,-2.71
2022-12-16T19:56:50.250Z,-2.63
2022-12-16T19:59:35.644Z,-2.69
2022-12-16T20:02:21.114Z,-2.64
2022-12-16T20:05:07.667Z,-2.55
2022-12-16T20:07:52.762Z,-2.62
2022-12-16T20:10:42.046Z,-2.51
2022-12-16T20:13:30.094Z,-2.41
2022-12-16T20:19:19.277Z,-2.67
2022-12-16T20:22:17.921Z,-2.70
2022-12-16T20:25:02.953Z,-2.54
2022-12-16T20:27:48.276Z,-2.44
2022-12-16T20:30:33.643Z,-2.34
2022-12-16T20:33:19.031Z,-2.29
2022-12-16T20:36:14.096Z,-2.27
2022-12-16T20:39:00.657Z,-2.21
2022-12-16T20:41:45.976Z,-2.25
2022-12-16T20:44:29.283Z,-2.21
2022-12-16T20:47:22.198Z,-2.15
2022-12-16T20:50:09.136Z,-2.15
2022-12-16T20:52:56.822Z,-2.11
2022-12-16T20:55:44.712Z,-2.06
2022-12-16T20:58:30.862Z,-2.03
2022-12-16T21:01:16.996Z,-2.16
2022-12-16T21:04:03.215Z,-2.19
2022-12-16T21:06:50.282Z,-2.20
2022-12-16T21:09:37.913Z,-2.18
2022-12-16T21:12:33.827Z,-2.12
2022-12-16T21:15:20.296Z,-2.17
2022-12-16T21:18:06.609Z,-2.10
2022-12-16T21:20:52.551Z,-2.07
2022-12-16T21:23:48.895Z,-2.05
2022-12-16T21:26:34.341Z,-2.00
2022-12-16T21:29:21.908Z,-2.10
2022-12-16T21:32:10.658Z,-2.06
2022-12-16T21:35:06.061Z,-2.06
2022-12-16T21:37:52.031Z,-2.06
2022-12-16T21:40:37.556Z,-2.03
2022-12-16T21:43:23.898Z,-1.99
2022-12-16T21:46:14.815Z,-1.99
2022-12-16T21:49:00.386Z,-2.10
2022-12-16T21:51:46.187Z,-2.19
2022-12-16T21:54:32.370Z,-2.25
2022-12-16T22:14:27.721Z,-2.78
2022-12-16T22:17:13.170Z,-2.65
2022-12-16T22:19:58.530Z,-2.64
2022-12-16T22:22:44.062Z,-2.81
2022-12-16T22:25:30.363Z,-2.78
2022-12-16T22:28:16.948Z,-2.64
2022-12-16T22:31:02.344Z,-2.55
2022-12-16T22:33:47.498Z,-2.62
2022-12-16T22:36:33.056Z,-2.69
2022-12-16T22:39:18.261Z,-2.89
2022-12-16T22:42:03.628Z,-2.86
2022-12-16T22:44:50.272Z,-2.80
2022-12-16T22:47:35.491Z,-2.68
2022-12-16T22:50:20.881Z,-2.78
2022-12-16T22:53:06.164Z,-2.83
2022-12-16T22:56:03.003Z,-2.72
2022-12-16T22:58:47.879Z,-2.67
2022-12-16T23:01:34.648Z,-2.83
2022-12-16T23:04:16.502Z,-2.89
2022-12-16T23:07:01.819Z,-2.94
2022-12-16T23:09:47.037Z,-2.91
2022-12-16T23:12:32.503Z,-3.07
2022-12-16T23:15:17.940Z,-3.09
2022-12-16T23:18:04.236Z,-3.09
2022-12-16T23:20:49.438Z,-3.12
2022-12-16T23:23:34.831Z,-3.23
2022-12-16T23:26:20.697Z,-3.17
2022-12-16T23:29:08.091Z,-3.25
2022-12-16T23:31:53.395Z,-3.25
2022-12-16T23:34:42.306Z,-3.07
2022-12-16T23:37:31.197Z,-2.94
2022-12-16T23:40:16.601Z,-2.95
2022-12-16T23:43:01.862Z,-3.15
2022-12-16T23:45:47.167Z,-3.15
2022-12-16T23:48:32.385Z,-3.07
2022-12-16T23:51:19.102Z,-3.05
2022-12-16T23:54:04.500Z,-2.96
2022-12-16T23:56:49.875Z,-2.86
2022-12-16T23:59:35.414Z,-2.82
